DEMAR EDHL-EDDH
Flight info
| Callsign | DEMAR |
|---|---|
| Flight time | 0h 13m |
| Altitude | 8000 |
| Route | HAM2A/07 HAM |
| Aircraft | BT36/L-BDFGLORY/S |
Departure
| Time | 2026-04-21 19:56 |
|---|---|
| Airport | Lübeck Blankensee Airport (EDHL) |
Arrival
| Time | 2026-04-21 20:09 |
|---|---|
| Airport | Hamburg Helmut Schmidt Airport (EDDH) |
| Time | Latitude | Longitude | Altitude | Speed | Heading |
|---|---|---|---|---|---|
| 2026-04-21 19:55 | 53.74214 | 10.73481 | 4972 ft | 147 kts | 262° |
| 2026-04-21 19:56 | 53.74035 | 10.71776 | 4976 ft | 147 kts | 262° |
| 2026-04-21 19:56 | 53.73855 | 10.70066 | 4959 ft | 149 kts | 262° |
| 2026-04-21 19:56 | 53.73663 | 10.68350 | 4904 ft | 150 kts | 260° |
| 2026-04-21 19:56 | 53.73488 | 10.66622 | 4804 ft | 150 kts | 262° |
| 2026-04-21 19:57 | 53.73297 | 10.64886 | 4703 ft | 152 kts | 260° |
| 2026-04-21 19:57 | 53.73089 | 10.63125 | 4578 ft | 152 kts | 258° |
| 2026-04-21 19:57 | 53.72841 | 10.61334 | 4307 ft | 157 kts | 257° |
| 2026-04-21 19:57 | 53.72573 | 10.59576 | 4148 ft | 155 kts | 257° |
| 2026-04-21 19:58 | 53.72336 | 10.57799 | 3917 ft | 156 kts | 259° |
| 2026-04-21 19:58 | 53.72087 | 10.56041 | 3713 ft | 153 kts | 258° |
| 2026-04-21 19:58 | 53.71852 | 10.54290 | 3527 ft | 151 kts | 261° |
| 2026-04-21 19:58 | 53.71684 | 10.52543 | 3287 ft | 153 kts | 263° |
| 2026-04-21 19:59 | 53.71529 | 10.50736 | 2913 ft | 156 kts | 264° |
| 2026-04-21 19:59 | 53.71445 | 10.48943 | 2694 ft | 148 kts | 272° |
| 2026-04-21 19:59 | 53.71405 | 10.47173 | 2340 ft | 155 kts | 266° |
| 2026-04-21 19:59 | 53.71252 | 10.45391 | 2082 ft | 152 kts | 265° |
| 2026-04-21 20:00 | 53.71127 | 10.43621 | 1810 ft | 152 kts | 265° |
| 2026-04-21 20:00 | 53.70994 | 10.41802 | 1381 ft | 159 kts | 265° |
| 2026-04-21 20:00 | 53.70848 | 10.40020 | 1211 ft | 151 kts | 264° |
| 2026-04-21 20:00 | 53.70690 | 10.38319 | 1071 ft | 147 kts | 264° |
| 2026-04-21 20:01 | 53.70535 | 10.36585 | 1048 ft | 161 kts | 263° |
| 2026-04-21 20:01 | 53.70266 | 10.34646 | 1192 ft | 175 kts | 256° |
| 2026-04-21 20:01 | 53.69923 | 10.32621 | 1300 ft | 182 kts | 256° |
| 2026-04-21 20:01 | 53.69575 | 10.30567 | 1477 ft | 180 kts | 254° |
| 2026-04-21 20:02 | 53.69328 | 10.29243 | 1665 ft | 178 kts | 252° |
| 2026-04-21 20:02 | 53.68845 | 10.26565 | 1910 ft | 181 kts | 258° |
| 2026-04-21 20:02 | 53.68578 | 10.24448 | 1946 ft | 186 kts | 260° |
| 2026-04-21 20:02 | 53.68356 | 10.22278 | 1928 ft | 189 kts | 262° |
| 2026-04-21 20:03 | 53.68142 | 10.20138 | 1838 ft | 170 kts | 263° |
| 2026-04-21 20:03 | 53.67909 | 10.18342 | 1766 ft | 152 kts | 251° |
| 2026-04-21 20:03 | 53.67482 | 10.16790 | 1789 ft | 145 kts | 238° |
| 2026-04-21 20:03 | 53.66943 | 10.15339 | 1649 ft | 148 kts | 236° |
| 2026-04-21 20:04 | 53.66315 | 10.13905 | 1378 ft | 152 kts | 231° |
| 2026-04-21 20:04 | 53.65649 | 10.12497 | 1169 ft | 150 kts | 230° |
| 2026-04-21 20:04 | 53.65031 | 10.11141 | 1145 ft | 145 kts | 234° |
| 2026-04-21 20:04 | 53.64438 | 10.09771 | 1095 ft | 144 kts | 232° |
| 2026-04-21 20:05 | 53.63808 | 10.08458 | 1026 ft | 143 kts | 223° |
| 2026-04-21 20:05 | 53.63110 | 10.07291 | 1015 ft | 139 kts | 223° |
| 2026-04-21 20:05 | 53.62457 | 10.06148 | 1115 ft | 135 kts | 225° |
| 2026-04-21 20:05 | 53.61852 | 10.04893 | 1075 ft | 141 kts | 232° |
| 2026-04-21 20:06 | 53.61300 | 10.03525 | 1028 ft | 140 kts | 228° |
| 2026-04-21 20:06 | 53.60678 | 10.02265 | 985 ft | 134 kts | 227° |
| 2026-04-21 20:06 | 53.60045 | 10.01076 | 979 ft | 138 kts | 224° |
| 2026-04-21 20:06 | 53.59415 | 9.99869 | 1024 ft | 137 kts | 234° |
| 2026-04-21 20:07 | 53.58904 | 9.98535 | 1074 ft | 134 kts | 238° |
| 2026-04-21 20:07 | 53.58884 | 9.97168 | 915 ft | 122 kts | 309° |
| 2026-04-21 20:07 | 53.59224 | 9.96382 | 745 ft | 126 kts | 313° |
| 2026-04-21 20:07 | 53.60055 | 9.95061 | 463 ft | 123 kts | 324° |
| 2026-04-21 20:08 | 53.60783 | 9.94973 | 376 ft | 110 kts | 22° |
| 2026-04-21 20:08 | 53.61456 | 9.95615 | 189 ft | 112 kts | 49° |
| 2026-04-21 20:08 | 53.61786 | 9.96272 | 94 ft | 110 kts | 50° |
| 2026-04-21 20:08 | 53.62226 | 9.97178 | 34 ft | 85 kts | 44° |
| 2026-04-21 20:09 | 53.62510 | 9.97749 | 35 ft | 47 kts | 53° |
| 2026-04-21 20:09 | 53.62706 | 9.98146 | 37 ft | 29 kts | 51° |
| 2026-04-21 20:09 | 53.62710 | 9.98408 | 40 ft | 16 kts | 147° |
| 2026-04-21 20:09 | 53.62671 | 9.98475 | 41 ft | 16 kts | 99° |
| 2026-04-21 20:10 | 53.62758 | 9.98690 | 41 ft | 19 kts | 52° |
| 2026-04-21 20:10 | 53.62765 | 9.98820 | 41 ft | 17 kts | 150° |
| 2026-04-21 20:10 | 53.62667 | 9.98874 | 41 ft | 14 kts | 266° |
| 2026-04-21 20:10 | 53.62606 | 9.98874 | 41 ft | 12 kts | 82° |
| 2026-04-21 20:11 | 53.62616 | 9.98905 | 41 ft | 0 kts | 62° |